createdAt,value
2022-08-28T00:01:44.804Z,98541.25
2022-08-28T00:04:11.248Z,98538.22
2022-08-28T00:06:37.742Z,98545.16
2022-08-28T00:09:05.227Z,98541.25
2022-08-28T00:11:31.845Z,98543.94
2022-08-28T00:14:00.848Z,98541.72
2022-08-28T00:16:27.423Z,98545.03
2022-08-28T00:18:53.884Z,98539.81
2022-08-28T00:21:20.320Z,98544.00
2022-08-28T00:23:46.778Z,98542.97
2022-08-28T00:26:33.259Z,98544.00
2022-08-28T00:29:01.209Z,98538.41
2022-08-28T00:31:27.688Z,98543.53
2022-08-28T00:33:54.269Z,98547.88
2022-08-28T00:36:20.752Z,98547.06
2022-08-28T00:38:47.332Z,98549.88
2022-08-28T00:41:13.843Z,98543.59
2022-08-28T00:43:43.062Z,98548.63
2022-08-28T00:46:16.448Z,98551.28
2022-08-28T00:48:43.221Z,98543.84
2022-08-28T00:51:30.164Z,98552.13
2022-08-28T00:53:59.045Z,98544.63
2022-08-28T00:56:27.586Z,98551.44
2022-08-28T00:58:56.728Z,98543.34
2022-08-28T01:01:24.101Z,98542.88
2022-08-28T01:03:50.709Z,98543.34
2022-08-28T01:06:20.521Z,98543.16
2022-08-28T01:08:50.679Z,98543.72
2022-08-28T01:11:19.482Z,98546.03
2022-08-28T01:13:48.388Z,98540.06
2022-08-28T01:16:17.462Z,98540.13
2022-08-28T01:18:46.149Z,98541.09
2022-08-28T01:21:33.144Z,98542.38
2022-08-28T01:24:04.924Z,98548.47
2022-08-28T01:26:31.759Z,98542.03
2022-08-28T01:28:59.834Z,98547.75
2022-08-28T01:31:29.981Z,98540.66
2022-08-28T01:33:59.196Z,98543.19
2022-08-28T01:36:26.006Z,98550.25
2022-08-28T01:39:00.950Z,98544.84
2022-08-28T01:41:29.461Z,98538.03
2022-08-28T01:43:56.133Z,98544.06
2022-08-28T01:46:22.746Z,98538.66
2022-08-28T01:48:49.343Z,98535.72
2022-08-28T01:51:15.865Z,98539.03
2022-08-28T01:53:46.345Z,98541.53
2022-08-28T01:56:15.597Z,98549.78
2022-08-28T01:58:42.357Z,98547.44
2022-08-28T02:01:13.470Z,98552.09
2022-08-28T02:03:42.997Z,98552.00
2022-08-28T02:06:10.065Z,98546.81
2022-08-28T02:08:36.903Z,98546.59
2022-08-28T02:11:06.224Z,98555.56
2022-08-28T02:13:33.731Z,98549.16
2022-08-28T02:16:00.887Z,98555.03
2022-08-28T02:18:27.679Z,98553.81
2022-08-28T02:20:54.106Z,98554.59
2022-08-28T02:23:20.554Z,98556.25
2022-08-28T02:25:47.344Z,98561.66
2022-08-28T02:28:16.445Z,98568.13
2022-08-28T02:30:43.111Z,98566.84
2022-08-28T02:33:09.674Z,98568.66
2022-08-28T02:35:36.174Z,98565.91
2022-08-28T02:38:04.328Z,98565.09
2022-08-28T02:40:31.595Z,98570.53
2022-08-28T02:42:58.176Z,98567.66
2022-08-28T02:45:24.653Z,98572.47
2022-08-28T02:47:53.886Z,98564.81
2022-08-28T02:50:20.898Z,98565.72
2022-08-28T02:52:47.487Z,98568.38
2022-08-28T02:55:16.152Z,98561.31
2022-08-28T02:57:42.967Z,98564.63
2022-08-28T03:00:13.489Z,98558.66
2022-08-28T03:02:41.592Z,98560.75
2022-08-28T03:05:09.194Z,98563.81
2022-08-28T03:07:35.656Z,98560.66
2022-08-28T03:10:02.757Z,98560.88
2022-08-28T03:12:29.191Z,98564.59
2022-08-28T03:14:56.732Z,98563.16
2022-08-28T03:17:23.200Z,98574.38
2022-08-28T03:19:50.147Z,98572.91
2022-08-28T03:22:18.080Z,98559.59
2022-08-28T03:24:44.982Z,98565.16
2022-08-28T03:27:11.656Z,98571.50
2022-08-28T03:29:38.184Z,98576.47
2022-08-28T03:32:04.736Z,98572.34
2022-08-28T03:34:31.218Z,98569.88
2022-08-28T03:36:57.711Z,98566.72
2022-08-28T03:39:24.093Z,98573.78
2022-08-28T03:41:51.540Z,98576.94
2022-08-28T03:44:17.935Z,98583.41
2022-08-28T03:46:44.385Z,98586.47
2022-08-28T03:49:11.229Z,98590.03
2022-08-28T03:51:38.335Z,98586.72
2022-08-28T03:54:05.518Z,98595.22
2022-08-28T03:56:32.500Z,98586.06
2022-08-28T03:59:00.973Z,98587.25
2022-08-28T04:01:28.283Z,98581.25
2022-08-28T04:03:56.186Z,98584.19
2022-08-28T04:06:22.934Z,98578.13
2022-08-28T04:08:50.945Z,98586.91
2022-08-28T04:11:18.246Z,98592.06
2022-08-28T04:13:44.999Z,98590.84
2022-08-28T04:16:14.298Z,98590.66
2022-08-28T04:18:42.445Z,98590.22
2022-08-28T04:21:12.607Z,98592.25
2022-08-28T04:23:43.101Z,98585.41
2022-08-28T04:26:12.525Z,98581.00
2022-08-28T04:28:39.539Z,98595.69
2022-08-28T04:31:08.053Z,98594.25
2022-08-28T04:33:35.893Z,98593.19
2022-08-28T04:36:11.176Z,98597.72
2022-08-28T04:38:43.510Z,98596.44
2022-08-28T04:41:12.908Z,98595.81
2022-08-28T04:43:39.683Z,98593.19
2022-08-28T04:46:08.639Z,98599.16
2022-08-28T04:48:36.162Z,98610.31
2022-08-28T04:51:06.359Z,98606.22
2022-08-28T04:53:33.009Z,98606.47
2022-08-28T04:56:00.674Z,98608.09
2022-08-28T04:58:27.576Z,98611.81
2022-08-28T05:00:55.156Z,98612.06
2022-08-28T05:03:22.546Z,98615.13
2022-08-28T05:05:54.031Z,98621.38
2022-08-28T05:08:23.361Z,98617.25
2022-08-28T05:10:50.889Z,98612.69
2022-08-28T05:13:20.995Z,98625.94
2022-08-28T05:15:49.998Z,98615.00
2022-08-28T05:18:18.796Z,98624.00
2022-08-28T05:20:47.731Z,98631.94
2022-08-28T05:23:16.779Z,98629.66
2022-08-28T05:25:46.141Z,98625.19
2022-08-28T05:28:13.030Z,98632.28
2022-08-28T05:30:41.971Z,98634.53
2022-08-28T05:33:10.415Z,98646.28
2022-08-28T05:35:39.060Z,98644.50
2022-08-28T05:38:06.634Z,98646.41
2022-08-28T05:40:33.978Z,98656.41
2022-08-28T05:43:00.483Z,98649.75
2022-08-28T05:45:26.941Z,98660.31
2022-08-28T05:47:53.965Z,98654.75
2022-08-28T05:50:20.422Z,98660.22
2022-08-28T05:52:47.432Z,98661.31
2022-08-28T05:55:14.081Z,98659.16
2022-08-28T05:57:41.478Z,98665.56
2022-08-28T06:00:13.347Z,98659.69
2022-08-28T06:02:41.881Z,98663.16
2022-08-28T06:05:12.649Z,98663.66
2022-08-28T06:07:40.997Z,98663.78
2022-08-28T06:10:10.713Z,98667.47
2022-08-28T06:12:37.977Z,98667.31
2022-08-28T06:15:05.527Z,98673.00
2022-08-28T06:17:31.991Z,98670.09
2022-08-28T06:19:58.417Z,98668.19
2022-08-28T06:22:24.840Z,98663.84
2022-08-28T06:24:51.236Z,98665.06
2022-08-28T06:27:17.728Z,98670.09
2022-08-28T06:29:44.693Z,98669.03
2022-08-28T06:32:11.258Z,98665.22
2022-08-28T06:34:37.760Z,98670.44
2022-08-28T06:37:04.480Z,98673.59
2022-08-28T06:39:31.018Z,98668.78
2022-08-28T06:41:57.440Z,98669.31
2022-08-28T06:44:23.937Z,98662.03
2022-08-28T06:46:53.648Z,98665.25
2022-08-28T06:49:20.784Z,98665.00
2022-08-28T06:51:47.397Z,98666.66
2022-08-28T06:54:21.137Z,98663.56
2022-08-28T06:56:49.385Z,98667.94
2022-08-28T06:59:15.907Z,98670.06
2022-08-28T07:01:42.484Z,98657.41
2022-08-28T07:04:11.419Z,98660.47
2022-08-28T07:06:41.353Z,98661.00
2022-08-28T07:09:11.000Z,98665.22
2022-08-28T07:11:38.450Z,98676.00
2022-08-28T07:14:05.880Z,98676.84
2022-08-28T07:16:35.342Z,98680.63
2022-08-28T07:19:05.155Z,98677.34
2022-08-28T07:21:35.320Z,98679.44
2022-08-28T07:24:06.452Z,98681.56
2022-08-28T07:26:32.939Z,98679.28
2022-08-28T07:29:10.973Z,98684.50
2022-08-28T07:31:40.829Z,98674.94
2022-08-28T07:34:08.339Z,98689.66
2022-08-28T07:36:34.919Z,98687.59
2022-08-28T07:39:01.525Z,98689.50
2022-08-28T07:41:30.905Z,98687.63
2022-08-28T07:44:16.263Z,98693.44
2022-08-28T07:46:42.974Z,98694.97
2022-08-28T07:49:10.560Z,98690.22
2022-08-28T07:51:37.147Z,98683.16
2022-08-28T07:54:04.451Z,98694.31
2022-08-28T07:56:31.863Z,98689.72
2022-08-28T07:59:00.632Z,98682.63
2022-08-28T08:01:30.684Z,98679.59
2022-08-28T08:04:01.348Z,98689.72
2022-08-28T08:06:33.725Z,98690.28
2022-08-28T08:09:01.934Z,98687.47
2022-08-28T08:11:32.196Z,98695.63
2022-08-28T08:14:04.802Z,98698.31
2022-08-28T08:16:35.496Z,98700.25
2022-08-28T08:19:03.377Z,98700.03
2022-08-28T08:21:31.527Z,98698.59
2022-08-28T08:23:58.847Z,98702.66
2022-08-28T08:26:28.184Z,98699.97
2022-08-28T08:28:56.517Z,98702.53
2022-08-28T08:31:34.179Z,98711.94
2022-08-28T08:34:04.382Z,98699.31
2022-08-28T08:36:32.794Z,98698.78
2022-08-28T08:39:00.496Z,98696.81
2022-08-28T08:41:33.342Z,98700.44
2022-08-28T08:44:02.985Z,98699.84
2022-08-28T08:46:48.438Z,98697.00
2022-08-28T08:49:22.584Z,98696.75
2022-08-28T08:52:11.204Z,98708.00
2022-08-28T08:54:46.411Z,98707.50
2022-08-28T08:57:14.953Z,98706.91
2022-08-28T08:59:41.861Z,98702.75
2022-08-28T09:02:22.437Z,98701.34
2022-08-28T09:05:10.111Z,98703.50
2022-08-28T09:07:41.009Z,98702.44
2022-08-28T09:10:12.298Z,98700.97
2022-08-28T09:12:57.299Z,98702.56
2022-08-28T09:15:32.063Z,98700.81
2022-08-28T09:18:20.907Z,98703.59
2022-08-28T09:20:52.110Z,98701.84
2022-08-28T09:23:18.797Z,98702.47
2022-08-28T09:25:50.917Z,98712.25
2022-08-28T09:28:25.920Z,98707.88
2022-08-28T09:31:16.209Z,98709.09
2022-08-28T09:33:49.312Z,98710.84
2022-08-28T09:36:29.402Z,98705.34
2022-08-28T09:39:17.157Z,98722.41
2022-08-28T09:42:05.116Z,98714.75
2022-08-28T09:44:32.138Z,98715.53
2022-08-28T09:46:59.292Z,98711.44
2022-08-28T09:49:30.359Z,98722.06
2022-08-28T09:52:01.697Z,98713.50
2022-08-28T09:54:36.193Z,98717.50
2022-08-28T09:57:03.713Z,98704.91
2022-08-28T09:59:31.002Z,98710.94
2022-08-28T10:02:31.218Z,98714.34
2022-08-28T10:05:04.206Z,98711.66
2022-08-28T10:07:40.284Z,98712.38
2022-08-28T10:10:31.836Z,98714.38
2022-08-28T10:13:14.842Z,98721.63
2022-08-28T10:15:43.265Z,98715.19
2022-08-28T10:18:10.068Z,98714.47
2022-08-28T10:21:03.109Z,98704.06
2022-08-28T10:23:54.300Z,98704.44
2022-08-28T10:26:39.507Z,98706.28
2022-08-28T10:29:23.766Z,98705.78
2022-08-28T10:32:14.825Z,98703.13
2022-08-28T10:34:49.789Z,98698.22
2022-08-28T10:37:46.773Z,98698.00
2022-08-28T10:40:35.816Z,98699.19
2022-08-28T10:43:05.950Z,98701.09
2022-08-28T10:45:34.797Z,98694.19
2022-08-28T10:48:09.092Z,98696.97
2022-08-28T10:50:42.695Z,98687.41
2022-08-28T10:53:16.824Z,98690.31
2022-08-28T10:56:24.798Z,98698.34
2022-08-28T10:58:57.367Z,98694.56
2022-08-28T11:01:43.142Z,98690.72
2022-08-28T11:04:24.900Z,98704.94
2022-08-28T11:06:57.306Z,98698.63
2022-08-28T11:09:36.469Z,98692.97
2022-08-28T11:12:28.214Z,98691.59
2022-08-28T11:14:55.111Z,98689.56
2022-08-28T11:17:33.401Z,98690.66
2022-08-28T11:20:24.656Z,98689.03
2022-08-28T11:22:53.985Z,98683.59
2022-08-28T11:25:54.943Z,98688.81
2022-08-28T11:28:25.471Z,98683.72
2022-08-28T11:31:28.809Z,98684.41
2022-08-28T11:33:58.952Z,98680.63
2022-08-28T11:36:26.441Z,98690.47
2022-08-28T11:38:55.690Z,98689.41
2022-08-28T11:41:39.033Z,98677.75
2022-08-28T11:44:12.565Z,98687.91
2022-08-28T11:46:50.843Z,98682.94
2022-08-28T11:49:26.498Z,98683.28
2022-08-28T11:52:16.316Z,98674.81
2022-08-28T11:55:00.806Z,98687.72
2022-08-28T12:00:52.875Z,98678.00
2022-08-28T12:03:25.607Z,98679.56
2022-08-28T12:05:57.987Z,98678.97
2022-08-28T12:08:51.297Z,98672.75
2022-08-28T12:11:39.473Z,98687.16
2022-08-28T12:14:25.253Z,98670.44
2022-08-28T12:17:04.911Z,98666.88
2022-08-28T12:19:41.194Z,98671.50
2022-08-28T12:22:22.526Z,98665.41
2022-08-28T12:24:59.289Z,98672.41
2022-08-28T12:27:26.261Z,98666.44
2022-08-28T12:30:00.961Z,98669.75
2022-08-28T12:32:54.322Z,98672.66
2022-08-28T12:35:23.967Z,98670.41
2022-08-28T12:37:53.706Z,98680.34
2022-08-28T12:40:26.451Z,98674.88
2022-08-28T12:42:56.615Z,98667.59
2022-08-28T12:45:42.685Z,98665.25
2022-08-28T12:48:33.844Z,98661.44
2022-08-28T12:51:13.519Z,98669.22
2022-08-28T12:53:45.978Z,98662.25
2022-08-28T12:56:15.777Z,98651.28
2022-08-28T12:58:43.086Z,98654.56
2022-08-28T13:01:11.508Z,98659.06
2022-08-28T13:03:47.745Z,98649.38
2022-08-28T13:06:23.320Z,98655.13
2022-08-28T13:08:49.973Z,98650.56
2022-08-28T13:11:19.989Z,98648.41
2022-08-28T13:13:49.981Z,98645.88
2022-08-28T13:16:37.567Z,98637.53
2022-08-28T13:19:04.012Z,98640.03
2022-08-28T13:21:37.185Z,98641.88
2022-08-28T13:24:21.925Z,98635.22
2022-08-28T13:26:58.911Z,98631.38
2022-08-28T13:29:25.565Z,98632.00
2022-08-28T13:32:17.460Z,98636.00
2022-08-28T13:35:17.412Z,98627.69
2022-08-28T13:37:54.882Z,98615.34
2022-08-28T13:41:05.998Z,98606.53
2022-08-28T13:43:19.938Z,98613.31
2022-08-28T13:45:48.812Z,98610.78
2022-08-28T13:48:20.840Z,98611.16
2022-08-28T13:51:08.617Z,98605.28
2022-08-28T13:53:37.156Z,98596.94
2022-08-28T13:56:04.112Z,98605.00
2022-08-28T13:58:31.163Z,98595.97
2022-08-28T14:00:57.955Z,98597.91
2022-08-28T14:03:37.466Z,98599.88
2022-08-28T14:06:09.125Z,98600.25
2022-08-28T14:08:35.693Z,98602.19
2022-08-28T14:11:02.381Z,98604.00
2022-08-28T14:13:29.008Z,98600.97
2022-08-28T14:15:56.520Z,98600.94
2022-08-28T14:18:24.571Z,98598.78
2022-08-28T14:20:51.084Z,98603.28
2022-08-28T14:23:17.818Z,98596.63
2022-08-28T14:25:45.843Z,98596.13
2022-08-28T14:28:14.315Z,98594.56
2022-08-28T14:30:42.779Z,98588.56
2022-08-28T14:33:09.506Z,98598.38
2022-08-28T14:35:40.685Z,98590.31
2022-08-28T14:38:08.192Z,98587.91
2022-08-28T14:40:44.842Z,98590.75
2022-08-28T14:43:13.884Z,98595.75
2022-08-28T14:45:49.239Z,98586.00
2022-08-28T14:48:18.423Z,98591.22
2022-08-28T14:50:48.088Z,98582.31
2022-08-28T14:53:15.663Z,98580.06
2022-08-28T14:55:48.295Z,98591.88
2022-08-28T14:58:16.312Z,98594.97
2022-08-28T15:00:47.100Z,98593.25
2022-08-28T15:03:14.111Z,98591.78
2022-08-28T15:05:41.078Z,98596.19
2022-08-28T15:08:10.027Z,98589.75
2022-08-28T15:10:42.167Z,98582.63
2022-08-28T15:13:10.193Z,98581.59
2022-08-28T15:15:39.493Z,98582.25
2022-08-28T15:18:10.408Z,98584.34
2022-08-28T15:20:41.695Z,98579.44
2022-08-28T15:23:08.727Z,98576.69
2022-08-28T15:25:35.356Z,98580.69
2022-08-28T15:28:01.985Z,98574.72
2022-08-28T15:30:28.442Z,98576.81
2022-08-28T15:32:54.890Z,98582.00
2022-08-28T15:35:21.377Z,98590.16
2022-08-28T15:37:47.938Z,98581.06
2022-08-28T15:40:33.263Z,98575.06
2022-08-28T15:43:00.028Z,98576.78
2022-08-28T15:45:27.079Z,98569.44
2022-08-28T15:47:54.097Z,98570.63
2022-08-28T15:50:20.674Z,98570.41
2022-08-28T15:52:47.455Z,98562.00
2022-08-28T15:55:13.925Z,98573.00
2022-08-28T15:57:40.312Z,98576.16
2022-08-28T16:00:10.319Z,98566.53
2022-08-28T16:02:37.351Z,98571.06
2022-08-28T16:05:04.112Z,98571.44
2022-08-28T16:07:30.649Z,98576.28
2022-08-28T16:09:57.133Z,98570.91
2022-08-28T16:12:23.654Z,98574.31
2022-08-28T16:14:50.313Z,98569.94
2022-08-28T16:17:17.320Z,98581.03
2022-08-28T16:19:44.953Z,98571.16
2022-08-28T16:22:15.732Z,98579.72
2022-08-28T16:24:42.882Z,98583.94
2022-08-28T16:27:14.658Z,98586.22
2022-08-28T16:29:42.091Z,98581.41
2022-08-28T16:32:09.594Z,98585.41
2022-08-28T16:34:38.473Z,98583.16
2022-08-28T16:37:08.015Z,98593.91
2022-08-28T16:39:35.346Z,98594.59
2022-08-28T16:42:02.301Z,98585.72
2022-08-28T16:44:28.738Z,98585.25
2022-08-28T16:46:55.731Z,98589.44
2022-08-28T16:49:23.502Z,98585.47
2022-08-28T16:51:50.041Z,98588.53
2022-08-28T16:54:21.459Z,98585.22
2022-08-28T16:56:47.965Z,98577.53
2022-08-28T16:59:20.339Z,98585.13
2022-08-28T17:01:53.073Z,98584.97
2022-08-28T17:04:20.469Z,98584.50
2022-08-28T17:06:47.086Z,98585.97
2022-08-28T17:09:13.593Z,98589.00
2022-08-28T17:11:40.137Z,98587.22
2022-08-28T17:14:07.742Z,98589.63
2022-08-28T17:16:34.327Z,98594.59
2022-08-28T17:19:00.890Z,98594.13
2022-08-28T17:21:45.643Z,98589.28
2022-08-28T17:24:12.525Z,98592.03
2022-08-28T17:26:40.501Z,98588.22
2022-08-28T17:29:07.145Z,98596.28
2022-08-28T17:31:33.839Z,98594.00
2022-08-28T17:34:00.508Z,98600.47
2022-08-28T17:36:33.011Z,98594.97
2022-08-28T17:39:01.835Z,98599.97
2022-08-28T17:41:28.325Z,98602.97
2022-08-28T17:43:54.832Z,98602.38
2022-08-28T17:46:21.438Z,98603.22
2022-08-28T17:48:55.432Z,98609.81
2022-08-28T17:51:42.130Z,98609.50
2022-08-28T17:54:10.818Z,98611.13
2022-08-28T17:56:37.318Z,98612.16
2022-08-28T17:59:04.709Z,98618.59
2022-08-28T18:01:31.216Z,98617.25
2022-08-28T18:03:57.810Z,98623.38
2022-08-28T18:06:24.945Z,98628.69
2022-08-28T18:08:51.826Z,98626.59
2022-08-28T18:11:19.074Z,98628.38
2022-08-28T18:13:46.253Z,98630.16
2022-08-28T18:16:12.858Z,98636.38
2022-08-28T18:18:39.436Z,98634.84
2022-08-28T18:21:06.024Z,98636.03
2022-08-28T18:23:32.784Z,98634.84
2022-08-28T18:25:59.256Z,98639.84
2022-08-28T18:28:26.626Z,98642.66
2022-08-28T18:30:54.193Z,98641.66
2022-08-28T18:33:23.647Z,98645.44
2022-08-28T18:35:51.684Z,98645.28
2022-08-28T18:38:19.890Z,98653.84
2022-08-28T18:40:46.696Z,98656.78
2022-08-28T18:43:13.747Z,98664.03
2022-08-28T18:45:40.527Z,98666.31
2022-08-28T18:48:10.111Z,98679.19
2022-08-28T18:50:36.667Z,98676.66
2022-08-28T18:53:03.690Z,98673.72
2022-08-28T18:55:32.065Z,98674.34
2022-08-28T18:57:59.679Z,98677.84
2022-08-28T19:00:27.127Z,98694.84
2022-08-28T19:02:54.213Z,98696.66
2022-08-28T19:05:21.212Z,98704.59
2022-08-28T19:07:48.477Z,98711.22
2022-08-28T19:10:32.460Z,98717.22
2022-08-28T19:13:01.007Z,98719.13
2022-08-28T19:15:28.226Z,98725.06
2022-08-28T19:17:54.709Z,98729.69
2022-08-28T19:20:21.437Z,98726.50
2022-08-28T19:22:48.707Z,98727.44
2022-08-28T19:25:27.447Z,98725.91
2022-08-28T19:27:54.745Z,98728.47
2022-08-28T19:30:25.975Z,98735.34
2022-08-28T19:32:52.519Z,98735.97
2022-08-28T19:35:19.427Z,98740.38
2022-08-28T19:37:46.309Z,98740.44
2022-08-28T19:40:14.011Z,98738.47
2022-08-28T19:42:41.140Z,98752.03
2022-08-28T19:45:10.434Z,98744.41
2022-08-28T19:47:36.917Z,98757.09
2022-08-28T19:50:08.228Z,98763.53
2022-08-28T19:52:36.288Z,98768.25
2022-08-28T19:55:05.585Z,98774.25
2022-08-28T19:57:32.822Z,98773.16
2022-08-28T20:00:00.008Z,98777.91
2022-08-28T20:02:27.171Z,98777.03
2022-08-28T20:04:54.459Z,98778.03
2022-08-28T20:07:21.136Z,98784.34
2022-08-28T20:09:47.699Z,98776.63
2022-08-28T20:12:14.593Z,98781.53
2022-08-28T20:14:42.494Z,98779.63
2022-08-28T20:17:08.950Z,98782.25
2022-08-28T20:19:35.860Z,98779.13
2022-08-28T20:22:03.075Z,98775.47
2022-08-28T20:24:29.626Z,98786.69
2022-08-28T20:26:56.212Z,98784.88
2022-08-28T20:29:24.157Z,98784.44
2022-08-28T20:31:50.915Z,98788.22
2022-08-28T20:34:19.211Z,98790.47
2022-08-28T20:36:46.401Z,98798.38
2022-08-28T20:39:13.059Z,98804.84
2022-08-28T20:41:40.948Z,98802.16
2022-08-28T20:44:09.431Z,98797.38
2022-08-28T20:46:40.880Z,98803.97
2022-08-28T20:49:12.637Z,98807.16
2022-08-28T20:51:53.485Z,98806.63
2022-08-28T20:54:22.068Z,98804.31
2022-08-28T20:56:50.624Z,98810.47
2022-08-28T20:59:18.215Z,98810.78
2022-08-28T21:01:44.787Z,98811.81
2022-08-28T21:04:11.294Z,98811.13
2022-08-28T21:06:38.264Z,98816.69
2022-08-28T21:09:04.856Z,98808.63
2022-08-28T21:11:31.288Z,98810.47
2022-08-28T21:13:57.786Z,98817.19
2022-08-28T21:16:24.340Z,98816.19
2022-08-28T21:19:14.651Z,98815.84
2022-08-28T21:21:37.746Z,98819.34
2022-08-28T21:24:09.484Z,98823.56
2022-08-28T21:26:39.178Z,98830.94
2022-08-28T21:29:09.112Z,98829.28
2022-08-28T21:31:35.635Z,98837.81
2022-08-28T21:34:02.642Z,98829.44
2022-08-28T21:36:29.235Z,98832.44
2022-08-28T21:38:57.311Z,98829.75
2022-08-28T21:41:24.438Z,98827.91
2022-08-28T21:43:50.886Z,98830.91
2022-08-28T21:46:17.569Z,98837.47
2022-08-28T21:48:49.637Z,98840.16
2022-08-28T21:51:18.004Z,98835.81
2022-08-28T21:53:45.565Z,98837.47
2022-08-28T21:56:17.265Z,98837.81
2022-08-28T21:58:43.767Z,98848.22
2022-08-28T22:01:14.710Z,98837.78
2022-08-28T22:03:41.500Z,98846.38
2022-08-28T22:06:13.446Z,98850.38
2022-08-28T22:08:41.239Z,98847.31
2022-08-28T22:11:09.882Z,98848.13
2022-08-28T22:13:37.184Z,98852.94
2022-08-28T22:16:04.870Z,98855.16
2022-08-28T22:18:34.181Z,98851.16
2022-08-28T22:21:20.147Z,98851.28
2022-08-28T22:23:47.323Z,98860.16
2022-08-28T22:26:17.206Z,98856.47
2022-08-28T22:28:44.218Z,98857.28
2022-08-28T22:31:10.744Z,98863.88
2022-08-28T22:33:37.524Z,98862.53
2022-08-28T22:36:04.315Z,98868.00
2022-08-28T22:38:31.261Z,98860.63
2022-08-28T22:40:58.021Z,98867.22
2022-08-28T22:43:24.574Z,98870.59
2022-08-28T22:45:51.019Z,98862.44
2022-08-28T22:48:18.184Z,98863.72
2022-08-28T22:50:46.486Z,98863.16
2022-08-28T22:53:14.820Z,98861.94
2022-08-28T22:55:45.156Z,98866.41
2022-08-28T22:58:12.806Z,98866.94
2022-08-28T23:00:41.654Z,98867.94
2022-08-28T23:03:08.353Z,98872.59
2022-08-28T23:05:34.924Z,98866.69
2022-08-28T23:08:01.582Z,98877.00
2022-08-28T23:10:48.323Z,98878.84
2022-08-28T23:13:15.442Z,98882.41
2022-08-28T23:15:43.437Z,98876.25
2022-08-28T23:18:11.027Z,98879.22
2022-08-28T23:20:37.576Z,98881.88
2022-08-28T23:23:04.068Z,98881.75
2022-08-28T23:25:30.606Z,98879.88
2022-08-28T23:27:57.323Z,98876.19
2022-08-28T23:30:25.068Z,98865.06
2022-08-28T23:32:52.833Z,98874.88
2022-08-28T23:35:20.181Z,98874.44
2022-08-28T23:37:51.857Z,98870.16
2022-08-28T23:40:23.917Z,98865.97
2022-08-28T23:42:52.240Z,98862.31
2022-08-28T23:45:19.936Z,98868.38
2022-08-28T23:47:47.547Z,98873.09
2022-08-28T23:50:18.357Z,98857.63
2022-08-28T23:52:45.114Z,98867.66
2022-08-28T23:55:14.120Z,98865.75
2022-08-28T23:57:40.803Z,98861.25
